Historyczne dane pomiarowe

Dodano dane terminowe – wersja testowa.

Dane z okresu 1951-2019

Wersja bazy: 1.34 [2019-03-16, lista zmian], aktualizacja planowana na 2019-04-15

Dane meteo z obszaru Polski uzyskane na podstawie danych udostępnionych przez Instytut Meteorologii i Gospodarki Wodnej – Państwowy Instytut Badawczy.

 

Wybierz Datę:    

       

TemperaturaWilgotnośćWiatrCiśnienieOpadyŚniegCzas trwania zjawisk
 Stacja t tx tn tng RH VA  wxwx mslp ppp RRR   cm mm wxwxwxwxwxwxwx
1956-10-10 3.9 8.5 -2.2- 87.5- 7.7 2.7---- 3.8------------
1956-10-09 6.0 7.5 2.1- 90.8- 5.7 2.3---- 4.6------------
1956-10-08 3.8 8.5 2.1- 86.5- 5.3 3.3---- 0.8------------
1956-10-07 6.1 8.0 2.8- 87.8- 8.0 14.3---- 14.5------------
1956-10-06 7.1 8.9 2.1- 95.5- 8.0 1.3---- 52.6------------
1956-10-05 9.6 12.5 5.6- 90.8- 6.7 3.7---- 3.7------------
1956-10-04 9.4 12.6 6.0- 85.5- 7.0 2.7---- 0.0------------
1956-10-03 12.6 16.7 11.1- 87.3- 5.3 4.7---- 0.8------------
1956-10-02 15.7 22.3 9.2- 83.0- 3.3 4.7---- 2.7------------
1956-10-01 13.0 18.6 5.0- 83.8- 3.7 1.0---- 7.3------------
1956-09-30 12.4 16.8 9.5- 77.0- 1.7 6.7---- 0.0------------
1956-09-29 14.3 18.1 11.8- 74.0- 4.7 10.0---- 0.3------------
1956-09-28 13.6 18.1 10.5- 89.3- 3.7 2.7---- 0.0------------
1956-09-27 14.0 19.7 4.9- 71.3- 2.3 3.0---- 0.0------------
1956-09-26 11.4 20.7 1.1- 81.8- 0.0 1.0---- 0.0------------
1956-09-25 9.0 15.9 0.6- 66.3- 0.0 2.3---- 0.0------------
1956-09-24 5.2 13.6 -1.1- 76.5- 0.0 0.7---- 0.0------------
1956-09-23 5.0 12.1 0.9- 79.3- 2.0 1.3---- 0.0------------
1956-09-22 8.4 15.6 4.3- 85.8- 5.3 1.3---- 0.0------------
1956-09-21 10.4 16.6 0.6- 80.5- 2.7 2.0---- 0.0------------
1956-09-20 10.8 14.4 1.3- 85.3- 5.3 0.7---- 0.0------------
1956-09-19 6.8 14.6 1.6- 86.3- 5.3 2.0---- 0.1------------
1956-09-18 6.9 12.1 3.6- 84.8- 6.7 1.3---- 0.0------------
1956-09-17 7.3 13.3 4.4- 85.5- 6.7 4.7---- 0.2------------
1956-09-16 9.2 13.3 5.1- 85.5- 7.3 4.0---- 4.6------------
1956-09-15 9.9 15.1 3.1- 79.8- 5.0 5.7---- 0.0------------
1956-09-14 7.7 14.9 4.4- 88.8- 4.3 2.0---- 0.0------------
1956-09-13 9.2 14.6 4.6- 84.8- 2.7 1.7---- 0.0------------
1956-09-12 9.4 13.3 7.5- 92.0- 6.7 1.7---- 16.8------------
1956-09-11 11.7 15.1 10.5- 87.5- 5.3 3.0---- 1.4------------
1956-09-10 12.1 14.8 10.0- 89.5- 8.0 2.0---- 0.0------------
1956-09-09 12.2 17.1 9.8- 89.8- 5.7 0.3---- 2.3------------
1956-09-08 13.9 19.5 11.5- 90.0- 7.3 1.7---- 0.8------------
1956-09-07 15.4 20.1 8.3- 78.3- 2.7 2.3---- 0.0------------
1956-09-06 12.2 19.1 8.0- 87.8- 4.7 0.7---- 0.0------------
1956-09-05 12.8 17.9 10.5- 84.5- 5.3 1.3---- 0.0------------
1956-09-04 16.9 23.4 10.5- 92.3- 5.3 0.7---- 2.7------------
1956-09-03 15.4 23.6 8.8- 81.3- 0.0 0.7---- 0.0------------
1956-09-02 13.8 21.8 6.0- 77.5- 0.3 0.0---- 0.0------------
1956-09-01 10.5 17.5 4.5- 82.8- 1.3 1.7---- 0.0------------
1956-08-31 11.4 16.7 9.4- 83.0- 4.7 3.7---- 0.0------------
1956-08-30 13.7 19.1 10.6- 87.0- 7.0 7.0---- 0.5------------
1956-08-29 15.8 20.3 11.3- 78.8- 1.3 3.0---- 0.0------------
1956-08-28 15.8 21.6 12.0- 84.0- 2.3 3.0---- 0.0------------
1956-08-27 15.3 22.6 10.0- 73.3- 4.7 1.3---- 0.0------------
1956-08-26 13.4 19.1 9.8- 75.5- 1.7 8.3---- 2.3------------
1956-08-25 13.5 16.2 7.6- 79.8- 6.3 6.7---- 0.0------------
1956-08-24 13.4 18.0 11.5- 91.8- 8.0 2.7---- 8.4------------
1956-08-23 14.4 18.6 7.0- 85.8- 8.0 1.0---- 19.1------------
1956-08-22 12.1 18.6 8.8- 88.0- 7.7 1.3---- 0.2------------
1956-08-21 14.3 19.5 6.5- 87.8- 6.0 0.3---- 0.0------------
1956-08-20 13.7 17.7 11.3- 81.8- 5.0 2.7---- 0.0------------
1956-08-19 18.4 23.6 12.0- 80.3- 5.3 1.7---- 0.0------------
1956-08-18 15.1 19.6 12.0- 87.5- 7.7 2.0---- 0.0------------
1956-08-17 12.9 17.1 8.5- 86.5- 7.3 3.3---- 0.6------------
1956-08-16 12.0 15.6 8.8- 88.0- 7.7 2.7---- 2.4------------
1956-08-15 14.0 17.6 12.5- 73.0- 4.0 4.7---- 0.0------------
1956-08-14 16.4 20.1 10.0- 82.0- 7.0 4.0---- 0.0------------
1956-08-13 11.6 13.0 10.2- 93.5- 4.7 3.7---- 1.1------------
1956-08-12 13.8 18.1 5.7- 77.3- 3.3 0.7---- 0.0------------
208.5 ms

 

Źródłem pochodzenia danych jest Instytut Meteorologii i Gospodarki Wodnej – Państwowy Instytut Badawczy. Dane Instytutu Meteorologii i Gospodarki Wodnej – Państwowego Instytutu Badawczego zostały przetworzone.

Dane źródłowe można odnaleźć na stronie https://dane.imgw.pl